createdAt,value
2017-09-02T00:00:15.484Z,98.10
2017-09-02T00:02:42.952Z,98.30
2017-09-02T00:05:10.603Z,98.50
2017-09-02T00:07:38.076Z,98.70
2017-09-02T00:10:05.604Z,98.80
2017-09-02T00:12:33.100Z,98.90
2017-09-02T00:15:00.579Z,98.80
2017-09-02T00:17:28.039Z,99.00
2017-09-02T00:19:55.633Z,99.00
2017-09-02T00:22:23.192Z,98.90
2017-09-02T00:24:50.666Z,98.90
2017-09-02T00:27:18.112Z,98.80
2017-09-02T00:29:45.591Z,98.20
2017-09-02T00:32:13.068Z,98.10
2017-09-02T00:34:40.526Z,97.80
2017-09-02T00:37:08.007Z,97.30
2017-09-02T00:39:35.468Z,97.40
2017-09-02T00:42:02.959Z,97.10
2017-09-02T00:44:30.414Z,97.00
2017-09-02T00:46:57.991Z,97.00
2017-09-02T00:49:25.455Z,97.10
2017-09-02T00:51:52.940Z,97.00
2017-09-02T00:54:20.399Z,97.10
2017-09-02T00:56:47.989Z,97.50
2017-09-02T00:59:15.455Z,97.50
2017-09-02T01:01:42.922Z,97.40
2017-09-02T01:04:10.398Z,97.70
2017-09-02T01:06:37.864Z,97.90
2017-09-02T01:09:05.358Z,98.10
2017-09-02T01:11:32.831Z,98.20
2017-09-02T01:14:00.300Z,98.60
2017-09-02T01:16:27.787Z,98.60
2017-09-02T01:18:55.266Z,98.60
2017-09-02T01:21:22.727Z,98.80
2017-09-02T01:23:50.314Z,98.80
2017-09-02T01:26:17.778Z,98.80
2017-09-02T01:28:45.254Z,98.60
2017-09-02T01:31:12.786Z,98.40
2017-09-02T01:33:40.255Z,97.80
2017-09-02T01:36:07.726Z,97.60
2017-09-02T01:38:35.186Z,97.50
2017-09-02T01:41:02.668Z,97.60
2017-09-02T01:43:30.123Z,97.50
2017-09-02T01:45:57.600Z,97.50
2017-09-02T01:48:25.067Z,97.40
2017-09-02T01:50:52.546Z,97.10
2017-09-02T01:53:20.007Z,97.10
2017-09-02T01:55:47.467Z,97.00
2017-09-02T01:58:14.947Z,97.00
2017-09-02T02:00:42.403Z,97.10
2017-09-02T02:03:09.895Z,97.30
2017-09-02T02:05:37.356Z,97.50
2017-09-02T02:08:04.819Z,97.50
2017-09-02T02:10:32.295Z,97.60
2017-09-02T02:12:59.775Z,97.70
2017-09-02T02:15:27.259Z,97.70
2017-09-02T02:17:54.723Z,97.90
2017-09-02T02:20:22.216Z,97.90
2017-09-02T02:22:49.678Z,98.00
2017-09-02T02:25:17.166Z,98.20
2017-09-02T02:27:44.635Z,98.20
2017-09-02T02:30:12.087Z,98.30
2017-09-02T02:32:39.574Z,98.30
2017-09-02T02:35:07.061Z,98.40
2017-09-02T02:37:34.524Z,98.40
2017-09-02T02:40:01.984Z,98.20
2017-09-02T02:42:29.458Z,98.20
2017-09-02T02:44:56.918Z,97.90
2017-09-02T02:47:24.383Z,98.00
2017-09-02T02:49:51.862Z,98.10
2017-09-02T02:52:19.319Z,98.00
2017-09-02T02:54:46.796Z,98.00
2017-09-02T02:57:14.268Z,98.30
2017-09-02T02:59:41.739Z,98.20
2017-09-02T03:02:09.199Z,98.40
2017-09-02T03:04:36.672Z,98.20
2017-09-02T03:07:04.149Z,98.20
2017-09-02T03:09:31.646Z,98.20
2017-09-02T03:11:59.122Z,98.30
2017-09-02T03:14:26.575Z,98.30
2017-09-02T03:16:54.059Z,98.30
2017-09-02T03:19:21.529Z,98.00
2017-09-02T03:21:48.994Z,98.10
2017-09-02T03:24:17.244Z,97.90
2017-09-02T03:26:44.702Z,97.80
2017-09-02T03:29:12.163Z,97.90
2017-09-02T03:31:39.633Z,97.70
2017-09-02T03:34:07.119Z,97.60
2017-09-02T03:36:34.578Z,97.50
2017-09-02T03:39:02.057Z,97.50
2017-09-02T03:41:29.541Z,97.70
2017-09-02T03:43:57.011Z,97.80
2017-09-02T03:46:24.515Z,97.60
2017-09-02T03:48:52.076Z,97.70
2017-09-02T03:51:19.531Z,97.80
2017-09-02T03:53:47.008Z,98.00
2017-09-02T03:56:14.471Z,97.80
2017-09-02T03:58:41.946Z,97.80
2017-09-02T04:01:09.406Z,97.70
2017-09-02T04:03:36.870Z,97.50
2017-09-02T04:06:04.343Z,97.70
2017-09-02T04:08:31.814Z,97.60
2017-09-02T04:10:59.291Z,97.90
2017-09-02T04:13:26.773Z,98.20
2017-09-02T04:15:54.256Z,98.30
2017-09-02T04:18:21.719Z,98.40
2017-09-02T04:20:49.209Z,98.10
2017-09-02T04:23:16.666Z,98.10
2017-09-02T04:25:44.201Z,98.10
2017-09-02T04:28:11.676Z,97.90
2017-09-02T04:30:39.142Z,97.70
2017-09-02T04:33:06.616Z,97.80
2017-09-02T04:35:34.088Z,97.80
2017-09-02T04:38:01.547Z,97.80
2017-09-02T04:40:29.042Z,97.70
2017-09-02T04:42:56.527Z,97.70
2017-09-02T04:45:23.984Z,97.70
2017-09-02T04:47:51.439Z,97.50
2017-09-02T04:50:18.934Z,97.60
2017-09-02T04:52:46.387Z,97.80
2017-09-02T04:55:13.856Z,98.00
2017-09-02T04:57:41.350Z,98.00
2017-09-02T05:00:08.812Z,98.00
2017-09-02T05:02:36.270Z,97.90
2017-09-02T05:05:03.739Z,98.00
2017-09-02T05:07:31.252Z,98.00
2017-09-02T05:09:58.700Z,98.20
2017-09-02T05:12:26.197Z,98.20
2017-09-02T05:14:53.755Z,98.50
2017-09-02T05:17:21.313Z,98.70
2017-09-02T05:19:48.775Z,99.20
2017-09-02T05:22:16.246Z,99.50
2017-09-02T05:24:43.726Z,99.70
2017-09-02T05:27:11.184Z,99.80
2017-09-02T05:29:38.682Z,99.90
2017-09-02T05:32:06.151Z,99.70
2017-09-02T05:34:33.611Z,99.80
2017-09-02T05:37:01.095Z,99.70
2017-09-02T05:39:28.577Z,99.60
2017-09-02T05:41:56.037Z,99.70
2017-09-02T05:44:23.536Z,99.40
2017-09-02T05:46:51.011Z,99.30
2017-09-02T05:49:18.471Z,99.10
2017-09-02T05:51:45.946Z,98.80
2017-09-02T05:54:13.435Z,98.50
2017-09-02T05:56:40.903Z,98.30
2017-09-02T05:59:08.389Z,98.30
2017-09-02T06:01:35.843Z,98.20
2017-09-02T06:04:03.331Z,98.10
2017-09-02T06:06:30.791Z,98.10
2017-09-02T06:08:58.280Z,98.10
2017-09-02T06:11:25.866Z,98.10
2017-09-02T06:13:53.331Z,98.10
2017-09-02T06:16:20.815Z,98.00
2017-09-02T06:18:48.266Z,97.60
2017-09-02T06:21:15.739Z,97.20
2017-09-02T06:23:43.211Z,96.70
2017-09-02T06:26:10.667Z,96.60
2017-09-02T06:28:38.152Z,95.70
2017-09-02T06:31:05.614Z,95.70
2017-09-02T06:33:33.092Z,95.60
2017-09-02T06:36:00.559Z,95.20
2017-09-02T06:38:28.034Z,94.90
2017-09-02T06:40:55.500Z,94.60
2017-09-02T06:43:23.019Z,94.20
2017-09-02T06:45:50.480Z,94.40
2017-09-02T06:48:17.975Z,94.50
2017-09-02T06:50:45.435Z,94.20
2017-09-02T06:53:12.909Z,94.70
2017-09-02T06:55:40.377Z,94.70
2017-09-02T06:58:07.835Z,94.80
2017-09-02T07:00:35.323Z,94.70
2017-09-02T07:03:02.795Z,94.40
2017-09-02T07:05:30.270Z,93.90
2017-09-02T07:07:57.752Z,93.70
2017-09-02T07:10:25.220Z,93.40
2017-09-02T07:12:52.698Z,93.60
2017-09-02T07:15:20.167Z,93.10
2017-09-02T07:17:47.623Z,93.00
2017-09-02T07:20:15.099Z,92.40
2017-09-02T07:25:06.594Z,91.80
2017-09-02T07:27:34.054Z,91.50
2017-09-02T07:30:01.542Z,90.80
2017-09-02T07:32:29.007Z,90.80
2017-09-02T07:34:56.483Z,90.50
2017-09-02T07:37:23.967Z,90.60
2017-09-02T07:39:51.461Z,90.80
2017-09-02T07:42:18.915Z,90.60
2017-09-02T07:44:46.382Z,90.90
2017-09-02T07:47:13.881Z,90.80
2017-09-02T07:49:41.351Z,90.30
2017-09-02T07:52:08.819Z,90.00
2017-09-02T07:54:36.299Z,90.00
2017-09-02T07:57:03.772Z,89.20
2017-09-02T07:59:31.241Z,89.40
2017-09-02T08:01:59.482Z,89.50
2017-09-02T08:04:26.954Z,89.40
2017-09-02T08:06:54.406Z,88.10
2017-09-02T08:09:21.890Z,88.00
2017-09-02T08:11:49.444Z,86.10
2017-09-02T08:14:17.675Z,87.40
2017-09-02T08:16:45.152Z,87.20
2017-09-02T08:19:12.642Z,86.80
2017-09-02T08:21:40.105Z,86.30
2017-09-02T08:24:07.585Z,85.10
2017-09-02T08:26:35.134Z,84.80
2017-09-02T08:29:02.594Z,84.40
2017-09-02T08:31:30.063Z,84.60
2017-09-02T08:33:57.540Z,83.80
2017-09-02T08:36:25.003Z,83.80
2017-09-02T08:38:52.482Z,83.60
2017-09-02T08:41:19.970Z,82.40
2017-09-02T08:43:47.428Z,83.90
2017-09-02T08:46:14.890Z,81.40
2017-09-02T08:48:42.379Z,80.40
2017-09-02T08:51:09.878Z,81.20
2017-09-02T08:53:37.351Z,80.70
2017-09-02T08:56:04.852Z,81.30
2017-09-02T08:58:32.312Z,80.20
2017-09-02T09:00:59.786Z,79.50
2017-09-02T09:03:27.283Z,80.00
2017-09-02T09:05:54.842Z,80.30
2017-09-02T09:08:22.317Z,79.90
2017-09-02T09:10:49.782Z,78.40
2017-09-02T09:13:17.267Z,78.80
2017-09-02T09:15:44.722Z,80.00
2017-09-02T09:18:12.208Z,78.90
2017-09-02T09:20:39.696Z,80.00
2017-09-02T09:23:07.155Z,80.20
2017-09-02T09:25:34.617Z,77.20
2017-09-02T09:28:02.099Z,74.30
2017-09-02T09:30:29.586Z,72.60
2017-09-02T09:32:57.070Z,71.90
2017-09-02T09:35:24.530Z,71.60
2017-09-02T09:37:51.995Z,71.00
2017-09-02T09:40:19.458Z,71.90
2017-09-02T09:42:46.919Z,73.20
2017-09-02T09:45:14.391Z,72.50
2017-09-02T09:47:41.855Z,72.50
2017-09-02T09:50:09.322Z,72.60
2017-09-02T09:52:36.827Z,69.30
2017-09-02T09:55:04.287Z,68.70
2017-09-02T09:57:31.772Z,65.80
2017-09-02T09:59:59.238Z,63.30
2017-09-02T10:02:26.694Z,62.70
2017-09-02T10:04:54.170Z,59.10
2017-09-02T10:07:21.653Z,56.70
2017-09-02T10:09:49.131Z,54.40
2017-09-02T10:12:16.609Z,52.90
2017-09-02T10:14:44.063Z,51.20
2017-09-02T10:17:11.531Z,50.10
2017-09-02T10:19:38.999Z,48.10
2017-09-02T10:22:06.443Z,47.40
2017-09-02T10:24:33.914Z,46.40
2017-09-02T10:27:01.371Z,52.20
2017-09-02T10:29:28.855Z,51.50
2017-09-02T10:31:56.315Z,49.30
2017-09-02T10:34:23.808Z,47.00
2017-09-02T10:36:51.262Z,45.30
2017-09-02T10:39:18.716Z,47.80
2017-09-02T10:41:46.202Z,48.10
2017-09-02T10:44:13.664Z,48.10
2017-09-02T10:46:41.161Z,46.50
2017-09-02T10:49:08.647Z,45.80
2017-09-02T10:51:36.115Z,46.70
2017-09-02T10:54:03.591Z,45.70
2017-09-02T10:56:31.059Z,47.20
2017-09-02T10:58:58.511Z,48.40
2017-09-02T11:01:26.000Z,48.30
2017-09-02T11:03:53.571Z,50.00
2017-09-02T11:06:21.014Z,51.00
2017-09-02T11:08:48.490Z,51.70
2017-09-02T11:11:15.943Z,52.80
2017-09-02T11:13:43.419Z,50.00
2017-09-02T11:16:10.879Z,48.20
2017-09-02T11:18:38.356Z,47.10
2017-09-02T11:21:05.836Z,45.50
2017-09-02T11:23:33.291Z,42.80
2017-09-02T11:26:00.766Z,43.90
2017-09-02T11:28:28.231Z,46.80
2017-09-02T11:30:55.703Z,49.00
2017-09-02T11:33:23.179Z,48.00
2017-09-02T11:35:50.639Z,43.80
2017-09-02T11:38:18.124Z,40.90
2017-09-02T11:40:45.602Z,40.60
2017-09-02T11:43:13.062Z,38.20
2017-09-02T11:45:40.548Z,38.20
2017-09-02T11:48:08.012Z,38.60
2017-09-02T11:50:35.500Z,36.60
2017-09-02T11:53:03.718Z,38.00
2017-09-02T11:55:31.203Z,37.90
2017-09-02T11:57:58.655Z,37.10
2017-09-02T12:00:26.115Z,40.50
2017-09-02T12:02:53.579Z,41.40
2017-09-02T12:05:21.057Z,40.20
2017-09-02T12:07:48.536Z,40.50
2017-09-02T12:10:16.001Z,40.20
2017-09-02T12:12:43.568Z,41.50
2017-09-02T12:15:11.029Z,42.80
2017-09-02T12:17:38.490Z,41.40
2017-09-02T12:20:06.032Z,41.40
2017-09-02T12:22:33.590Z,39.20
2017-09-02T12:25:01.059Z,40.80
2017-09-02T12:27:28.604Z,42.10
2017-09-02T12:29:56.075Z,42.00
2017-09-02T12:32:23.533Z,41.00
2017-09-02T12:34:51.006Z,40.40
2017-09-02T12:37:18.471Z,39.60
2017-09-02T12:39:45.988Z,39.40
2017-09-02T12:42:13.451Z,38.30
2017-09-02T12:44:40.932Z,40.60
2017-09-02T12:47:08.416Z,43.10
2017-09-02T12:49:35.864Z,41.30
2017-09-02T12:52:03.331Z,40.70
2017-09-02T12:54:30.798Z,43.00
2017-09-02T12:56:59.017Z,39.90
2017-09-02T12:59:26.484Z,39.80
2017-09-02T13:01:53.941Z,39.20
2017-09-02T13:04:21.424Z,38.50
2017-09-02T13:06:48.883Z,38.00
2017-09-02T13:09:16.339Z,39.60
2017-09-02T13:11:43.824Z,42.90
2017-09-02T13:14:11.311Z,45.20
2017-09-02T13:16:38.783Z,47.30
2017-09-02T13:19:06.247Z,48.90
2017-09-02T13:21:33.693Z,49.60
2017-09-02T13:24:01.159Z,51.10
2017-09-02T13:26:28.610Z,52.00
2017-09-02T13:28:56.091Z,50.70
2017-09-02T13:31:23.552Z,49.70
2017-09-02T13:33:51.028Z,48.10
2017-09-02T13:36:18.483Z,47.50
2017-09-02T13:38:45.966Z,47.80
2017-09-02T13:41:13.434Z,48.40
2017-09-02T13:43:40.912Z,46.80
2017-09-02T13:46:08.367Z,44.60
2017-09-02T13:48:35.848Z,44.50
2017-09-02T13:51:03.314Z,44.50
2017-09-02T13:53:30.801Z,45.80
2017-09-02T13:55:58.275Z,46.80
2017-09-02T13:58:25.727Z,46.70
2017-09-02T14:00:53.207Z,47.40
2017-09-02T14:03:20.660Z,47.30
2017-09-02T14:05:48.133Z,47.70
2017-09-02T14:08:15.640Z,48.40
2017-09-02T14:10:43.106Z,49.00
2017-09-02T14:13:10.573Z,48.10
2017-09-02T14:15:38.046Z,48.80
2017-09-02T14:18:05.569Z,49.20
2017-09-02T14:20:33.126Z,47.90
2017-09-02T14:23:00.639Z,47.80
2017-09-02T14:25:28.108Z,47.50
2017-09-02T14:27:55.575Z,47.80
2017-09-02T14:30:23.039Z,47.30
2017-09-02T14:32:50.517Z,46.60
2017-09-02T14:35:17.987Z,47.90
2017-09-02T14:37:45.455Z,48.00
2017-09-02T14:40:12.911Z,47.60
2017-09-02T14:42:40.379Z,47.80
2017-09-02T14:45:07.850Z,48.90
2017-09-02T14:47:35.348Z,48.50
2017-09-02T14:50:02.813Z,49.60
2017-09-02T14:52:30.274Z,48.40
2017-09-02T14:54:57.750Z,48.00
2017-09-02T14:57:25.210Z,47.40
2017-09-02T14:59:52.687Z,47.90
2017-09-02T15:02:20.163Z,47.50
2017-09-02T15:04:47.672Z,48.00
2017-09-02T15:07:15.143Z,48.10
2017-09-02T15:09:42.599Z,47.40
2017-09-02T15:12:10.051Z,47.30
2017-09-02T15:14:37.535Z,47.10
2017-09-02T15:17:05.758Z,46.30
2017-09-02T15:19:33.243Z,46.30
2017-09-02T15:22:00.687Z,47.50
2017-09-02T15:24:28.142Z,47.60
2017-09-02T15:26:55.624Z,48.50
2017-09-02T15:29:23.090Z,48.40
2017-09-02T15:31:50.560Z,48.50
2017-09-02T15:34:18.036Z,47.40
2017-09-02T15:36:45.496Z,49.40
2017-09-02T15:39:12.970Z,50.10
2017-09-02T15:41:40.435Z,51.50
2017-09-02T15:44:07.892Z,53.40
2017-09-02T15:46:35.425Z,53.70
2017-09-02T15:49:02.888Z,54.10
2017-09-02T15:51:30.363Z,54.20
2017-09-02T15:53:57.823Z,54.50
2017-09-02T15:56:25.279Z,55.00
2017-09-02T15:58:52.767Z,55.20
2017-09-02T16:01:20.219Z,55.10
2017-09-02T16:03:47.695Z,55.50
2017-09-02T16:06:15.163Z,56.00
2017-09-02T16:08:42.651Z,55.90
2017-09-02T16:11:10.115Z,55.60
2017-09-02T16:13:37.562Z,56.10
2017-09-02T16:16:05.051Z,56.60
2017-09-02T16:18:32.500Z,56.40
2017-09-02T16:20:59.968Z,55.40
2017-09-02T16:23:27.434Z,55.60
2017-09-02T16:25:54.898Z,55.40
2017-09-02T16:28:22.383Z,55.50
2017-09-02T16:30:49.851Z,55.70
2017-09-02T16:33:17.335Z,56.00
2017-09-02T16:35:44.787Z,56.60
2017-09-02T16:38:12.238Z,55.90
2017-09-02T16:40:39.721Z,56.40
2017-09-02T16:43:07.176Z,57.10
2017-09-02T16:45:34.646Z,57.60
2017-09-02T16:48:02.127Z,58.10
2017-09-02T16:50:29.598Z,58.10
2017-09-02T16:52:57.076Z,58.10
2017-09-02T16:55:24.531Z,58.50
2017-09-02T16:57:52.016Z,59.10
2017-09-02T17:00:19.467Z,59.40
2017-09-02T17:02:46.923Z,59.10
2017-09-02T17:05:14.391Z,59.10
2017-09-02T17:07:41.843Z,59.00
2017-09-02T17:10:09.311Z,58.50
2017-09-02T17:12:36.812Z,58.80
2017-09-02T17:15:04.278Z,59.50
2017-09-02T17:17:31.750Z,59.90
2017-09-02T17:19:59.226Z,59.60
2017-09-02T17:22:26.678Z,59.50
2017-09-02T17:24:54.144Z,59.10
2017-09-02T17:27:21.603Z,62.50
2017-09-02T17:29:49.063Z,64.10
2017-09-02T17:32:16.534Z,64.00
2017-09-02T17:34:44.018Z,63.90
2017-09-02T17:37:11.472Z,64.40
2017-09-02T17:39:38.944Z,65.10
2017-09-02T17:42:06.424Z,66.50
2017-09-02T17:44:33.887Z,66.90
2017-09-02T17:47:01.339Z,64.70
2017-09-02T17:49:28.824Z,63.40
2017-09-02T17:51:56.265Z,64.10
2017-09-02T17:54:24.507Z,64.80
2017-09-02T17:56:51.975Z,64.00
2017-09-02T17:59:19.443Z,63.10
2017-09-02T18:01:46.910Z,62.00
2017-09-02T18:04:14.507Z,62.50
2017-09-02T18:06:42.314Z,63.50
2017-09-02T18:09:09.768Z,64.00
2017-09-02T18:11:37.220Z,64.30
2017-09-02T18:14:04.694Z,65.10
2017-09-02T18:16:32.195Z,65.20
2017-09-02T18:18:59.670Z,66.10
2017-09-02T18:21:27.143Z,66.60
2017-09-02T18:23:54.606Z,67.30
2017-09-02T18:26:22.073Z,68.10
2017-09-02T18:28:49.543Z,68.90
2017-09-02T18:31:17.004Z,69.40
2017-09-02T18:33:44.493Z,70.20
2017-09-02T18:36:11.975Z,71.40
2017-09-02T18:38:39.419Z,70.80
2017-09-02T18:41:06.891Z,71.10
2017-09-02T18:43:34.359Z,71.60
2017-09-02T18:46:01.835Z,72.30
2017-09-02T18:48:29.304Z,72.80
2017-09-02T18:50:56.783Z,73.50
2017-09-02T18:53:24.244Z,73.60
2017-09-02T18:55:51.708Z,74.70
2017-09-02T18:58:19.177Z,76.40
2017-09-02T19:00:46.651Z,76.10
2017-09-02T19:03:14.127Z,76.20
2017-09-02T19:05:41.599Z,76.70
2017-09-02T19:08:09.064Z,78.30
2017-09-02T19:10:36.552Z,80.90
2017-09-02T19:13:04.011Z,81.70
2017-09-02T19:15:31.483Z,82.10
2017-09-02T19:17:58.938Z,83.90
2017-09-02T19:20:26.427Z,84.20
2017-09-02T19:22:53.879Z,84.40
2017-09-02T19:25:21.346Z,84.60
2017-09-02T19:27:48.811Z,85.10
2017-09-02T19:30:16.290Z,85.80
2017-09-02T19:32:43.763Z,86.30
2017-09-02T19:35:11.222Z,87.30
2017-09-02T19:37:38.688Z,87.70
2017-09-02T19:40:06.147Z,88.60
2017-09-02T19:42:33.612Z,88.10
2017-09-02T19:45:01.074Z,89.20
2017-09-02T19:47:28.536Z,89.20
2017-09-02T19:49:56.002Z,88.50
2017-09-02T19:52:23.480Z,88.50
2017-09-02T19:54:50.959Z,89.60
2017-09-02T19:57:18.416Z,90.00
2017-09-02T19:59:45.870Z,90.40
2017-09-02T20:02:13.359Z,90.50
2017-09-02T20:04:40.831Z,90.80
2017-09-02T20:07:08.290Z,90.90
2017-09-02T20:09:35.764Z,91.60
2017-09-02T20:12:03.252Z,91.80
2017-09-02T20:14:30.723Z,91.90
2017-09-02T20:16:58.175Z,92.20
2017-09-02T20:19:25.654Z,92.10
2017-09-02T20:21:53.115Z,92.20
2017-09-02T20:24:20.562Z,92.70
2017-09-02T20:26:48.034Z,93.00
2017-09-02T20:29:15.503Z,93.40
2017-09-02T20:31:43.108Z,93.30
2017-09-02T20:34:10.559Z,93.30
2017-09-02T20:36:38.020Z,93.20
2017-09-02T20:39:05.522Z,93.20
2017-09-02T20:41:32.998Z,93.10
2017-09-02T20:44:01.238Z,93.60
2017-09-02T20:46:28.690Z,93.60
2017-09-02T20:48:56.155Z,93.40
2017-09-02T20:51:23.626Z,93.60
2017-09-02T20:53:51.102Z,93.70
2017-09-02T20:56:18.559Z,93.90
2017-09-02T20:58:46.052Z,93.60
2017-09-02T21:01:13.606Z,93.50
2017-09-02T21:03:41.057Z,93.20
2017-09-02T21:06:08.522Z,93.00
2017-09-02T21:08:35.995Z,93.10
2017-09-02T21:11:03.467Z,93.20
2017-09-02T21:13:30.922Z,93.40
2017-09-02T21:15:58.380Z,93.80
2017-09-02T21:18:25.842Z,93.90
2017-09-02T21:20:53.323Z,94.30
2017-09-02T21:23:20.794Z,94.70
2017-09-02T21:25:48.261Z,95.10
2017-09-02T21:28:15.720Z,95.10
2017-09-02T21:30:43.190Z,94.10
2017-09-02T21:33:10.676Z,94.20
2017-09-02T21:35:38.147Z,94.70
2017-09-02T21:38:05.611Z,95.00
2017-09-02T21:40:33.103Z,95.20
2017-09-02T21:43:00.566Z,95.50
2017-09-02T21:45:28.049Z,95.50
2017-09-02T21:47:55.531Z,95.70
2017-09-02T21:50:22.987Z,95.70
2017-09-02T21:52:50.474Z,95.90
2017-09-02T21:55:18.713Z,96.50
2017-09-02T21:57:46.203Z,96.10
2017-09-02T22:00:13.679Z,96.10
2017-09-02T22:02:41.146Z,95.50
2017-09-02T22:05:08.628Z,95.50
2017-09-02T22:07:36.084Z,95.70
2017-09-02T22:10:03.607Z,95.90
2017-09-02T22:12:31.077Z,96.50
2017-09-02T22:14:58.527Z,96.70
2017-09-02T22:17:25.994Z,96.90
2017-09-02T22:19:53.463Z,97.00
2017-09-02T22:22:20.935Z,96.90
2017-09-02T22:24:48.447Z,96.20
2017-09-02T22:27:15.926Z,96.70
2017-09-02T22:29:43.395Z,97.50
2017-09-02T22:32:10.847Z,97.90
2017-09-02T22:34:39.091Z,97.30
2017-09-02T22:37:06.540Z,97.60
2017-09-02T22:39:34.027Z,97.70
2017-09-02T22:42:01.523Z,97.70
2017-09-02T22:44:29.814Z,98.30
2017-09-02T22:46:57.308Z,98.20
2017-09-02T22:49:24.770Z,98.60
2017-09-02T22:51:52.257Z,98.50
2017-09-02T22:54:19.716Z,98.70
2017-09-02T22:56:47.171Z,98.40
2017-09-02T22:59:14.645Z,98.00
2017-09-02T23:01:42.862Z,97.00
2017-09-02T23:04:10.347Z,97.00
2017-09-02T23:06:37.808Z,97.50
2017-09-02T23:09:05.258Z,97.40
2017-09-02T23:11:32.735Z,98.00
2017-09-02T23:14:00.216Z,98.40
2017-09-02T23:16:27.695Z,98.70
2017-09-02T23:18:55.163Z,98.30
2017-09-02T23:21:22.627Z,97.80
2017-09-02T23:23:50.115Z,98.30
2017-09-02T23:26:17.576Z,98.60
2017-09-02T23:28:45.034Z,98.50
2017-09-02T23:31:12.502Z,98.50
2017-09-02T23:33:39.988Z,98.70
2017-09-02T23:36:07.440Z,98.80
2017-09-02T23:38:34.922Z,98.90
2017-09-02T23:41:02.396Z,99.10
2017-09-02T23:43:29.851Z,99.20
2017-09-02T23:45:57.325Z,99.60
2017-09-02T23:48:24.787Z,98.90
2017-09-02T23:50:52.281Z,98.60
2017-09-02T23:53:19.747Z,99.50
2017-09-02T23:55:47.206Z,99.70
2017-09-02T23:58:14.682Z,99.50
